createdAt,value
2023-04-15T04:15:12.957Z,8.00
2023-04-15T04:16:13.017Z,8.00
2023-04-15T04:17:12.975Z,8.00
2023-04-15T04:18:12.882Z,12.00
2023-04-15T04:19:12.875Z,12.00
2023-04-15T04:20:12.855Z,12.00
2023-04-15T04:21:12.863Z,16.00
2023-04-15T04:22:12.836Z,20.00
2023-04-15T04:23:12.818Z,20.00
2023-04-15T04:24:12.808Z,28.00
2023-04-15T04:25:12.792Z,28.00
2023-04-15T04:26:12.788Z,32.00
2023-04-15T04:27:12.788Z,40.00
2023-04-15T04:28:12.754Z,40.00
2023-04-15T04:29:12.795Z,48.00
2023-04-15T04:30:12.723Z,56.00
2023-04-15T04:31:12.732Z,60.00
2023-04-15T04:32:12.778Z,64.00
2023-04-15T04:33:12.717Z,76.00
2023-04-15T04:34:12.674Z,80.00
2023-04-15T04:35:12.662Z,88.00
2023-04-15T04:36:12.656Z,96.00
2023-04-15T04:37:12.637Z,104.00
2023-04-15T04:38:12.626Z,112.00
2023-04-15T04:39:12.615Z,124.00
2023-04-15T04:40:12.586Z,132.00
2023-04-15T04:41:12.612Z,140.00
2023-04-15T04:42:12.569Z,148.00
2023-04-15T04:43:12.561Z,160.00
2023-04-15T04:44:12.540Z,172.00
2023-04-15T04:45:12.542Z,184.00
2023-04-15T04:46:12.588Z,196.00
2023-04-15T04:47:12.507Z,208.00
2023-04-15T04:48:12.492Z,220.00
2023-04-15T04:49:12.486Z,236.00
2023-04-15T04:50:12.462Z,248.00
2023-04-15T04:51:12.472Z,260.00
2023-04-15T04:52:12.440Z,272.00
2023-04-15T04:53:12.447Z,288.00
2023-04-15T04:54:12.408Z,304.00
2023-04-15T04:55:12.403Z,320.00
2023-04-15T04:56:12.412Z,336.00
2023-04-15T04:57:12.374Z,352.00
2023-04-15T04:58:12.368Z,364.00
2023-04-15T04:59:12.350Z,380.00
2023-04-15T05:00:12.336Z,396.00
2023-04-15T05:01:12.356Z,412.00
2023-04-15T05:02:12.390Z,432.00
2023-04-15T05:03:12.475Z,448.00
2023-04-15T05:04:12.349Z,472.00
2023-04-15T05:05:12.311Z,488.00
2023-04-15T05:06:12.258Z,508.00
2023-04-15T05:07:12.244Z,528.00
2023-04-15T05:08:12.232Z,544.00
2023-04-15T05:09:12.236Z,568.00
2023-04-15T05:10:12.209Z,588.00
2023-04-15T05:11:12.207Z,608.00
2023-04-15T05:12:12.174Z,628.00
2023-04-15T05:13:12.177Z,648.00
2023-04-15T05:14:12.152Z,672.00
2023-04-15T05:15:12.136Z,688.00
2023-04-15T05:16:12.191Z,712.00
2023-04-15T05:17:12.106Z,728.00
2023-04-15T05:18:12.109Z,752.00
2023-04-15T05:19:12.108Z,772.00
2023-04-15T05:20:12.072Z,796.00
2023-04-15T05:21:12.072Z,816.00
2023-04-15T05:22:12.043Z,840.00
2023-04-15T05:23:12.035Z,860.00
2023-04-15T05:24:12.016Z,884.00
2023-04-15T05:25:12.015Z,908.00
2023-04-15T05:26:12.004Z,928.00
2023-04-15T05:27:11.993Z,952.00
2023-04-15T05:28:11.965Z,972.00
2023-04-15T05:29:11.958Z,996.00
2023-04-15T05:30:13.446Z,1016.00
2023-04-15T05:31:11.964Z,1040.00
2023-04-15T05:32:11.918Z,1056.00
2023-04-15T05:33:11.908Z,1084.00
2023-04-15T05:34:11.895Z,1100.00
2023-04-15T05:35:11.894Z,1116.00
2023-04-15T05:36:11.875Z,1136.00
2023-04-15T05:37:11.853Z,1152.00
2023-04-15T05:38:11.836Z,1176.00
2023-04-15T05:39:11.829Z,1192.00
2023-04-15T05:40:11.814Z,1212.00
2023-04-15T05:41:11.822Z,1236.00
2023-04-15T05:42:11.780Z,1256.00
2023-04-15T05:43:11.785Z,1272.00
2023-04-15T05:44:11.767Z,1300.00
2023-04-15T05:45:11.749Z,1324.00
2023-04-15T05:46:11.783Z,1348.00
2023-04-15T05:47:11.719Z,1376.00
2023-04-15T05:48:11.707Z,1404.00
2023-04-15T05:49:11.702Z,1432.00
2023-04-15T05:50:11.683Z,1460.00
2023-04-15T05:51:11.715Z,1492.00
2023-04-15T05:52:11.658Z,1524.00
2023-04-15T05:53:11.660Z,1556.00
2023-04-15T05:54:11.641Z,1588.00
2023-04-15T05:55:11.618Z,1620.00
2023-04-15T05:56:11.619Z,1652.00
2023-04-15T05:57:11.589Z,1688.00
2023-04-15T05:58:11.582Z,1724.00
2023-04-15T05:59:11.573Z,1756.00
2023-04-15T06:00:11.554Z,1792.00
2023-04-15T06:01:11.549Z,1820.00
2023-04-15T06:02:11.642Z,1852.00
2023-04-15T06:03:11.643Z,1888.00
2023-04-15T06:04:11.713Z,1924.00
2023-04-15T06:05:11.487Z,1956.00
2023-04-15T06:06:11.492Z,1992.00
2023-04-15T06:07:11.468Z,2016.00
2023-04-15T06:08:11.475Z,2056.00
2023-04-15T06:09:11.457Z,2084.00
2023-04-15T06:10:11.420Z,2120.00
2023-04-15T06:11:11.421Z,2152.00
2023-04-15T06:12:11.399Z,2188.00
2023-04-15T06:13:11.383Z,2224.00
2023-04-15T06:14:11.369Z,2264.00
2023-04-15T06:15:11.358Z,2296.00
2023-04-15T06:16:11.358Z,2332.00
2023-04-15T06:17:11.328Z,2360.00
2023-04-15T06:18:11.309Z,2396.00
2023-04-15T06:19:11.299Z,2424.00
2023-04-15T06:20:11.306Z,2444.00
2023-04-15T06:21:11.286Z,2472.00
2023-04-15T06:22:11.273Z,2488.00
2023-04-15T06:23:11.249Z,2512.00
2023-04-15T06:24:11.232Z,2532.00
2023-04-15T06:25:11.242Z,2552.00
2023-04-15T06:26:11.213Z,2572.00
2023-04-15T06:27:11.204Z,2592.00
2023-04-15T06:28:11.176Z,2608.00
2023-04-15T06:29:11.166Z,2628.00
2023-04-15T06:30:11.153Z,2648.00
2023-04-15T06:31:11.162Z,2672.00
2023-04-15T06:32:11.125Z,2696.00
2023-04-15T06:33:11.111Z,2720.00
2023-04-15T06:34:11.129Z,2748.00
2023-04-15T06:35:11.102Z,2776.00
2023-04-15T06:36:11.092Z,2804.00
2023-04-15T06:37:11.072Z,2836.00
2023-04-15T06:38:11.046Z,2872.00
2023-04-15T06:39:11.034Z,2916.00
2023-04-15T06:40:11.031Z,2952.00
2023-04-15T06:41:11.006Z,2996.00
2023-04-15T06:42:10.993Z,3040.00
2023-04-15T06:43:10.979Z,3084.00
2023-04-15T06:44:10.961Z,3128.00
2023-04-15T06:45:10.974Z,3168.00
2023-04-15T06:46:10.967Z,3216.00
2023-04-15T06:47:10.930Z,3252.00
2023-04-15T06:48:10.914Z,3288.00
2023-04-15T06:49:10.905Z,3324.00
2023-04-15T06:50:10.881Z,3352.00
2023-04-15T06:51:10.889Z,3372.00
2023-04-15T06:52:10.855Z,3388.00
2023-04-15T06:53:10.852Z,3396.00
2023-04-15T06:54:10.852Z,3400.00
2023-04-15T06:55:10.853Z,3404.00
2023-04-15T06:56:10.818Z,3396.00
2023-04-15T06:57:10.819Z,3392.00
2023-04-15T06:58:10.775Z,3388.00
2023-04-15T06:59:10.769Z,3384.00
2023-04-15T07:00:10.763Z,3388.00
2023-04-15T07:01:10.813Z,3396.00
2023-04-15T07:02:10.777Z,3408.00
2023-04-15T07:03:10.763Z,3428.00
2023-04-15T07:04:10.734Z,3448.00
2023-04-15T07:05:10.706Z,3484.00
2023-04-15T07:06:10.676Z,3524.00
2023-04-15T07:07:10.658Z,3568.00
2023-04-15T07:08:10.646Z,3600.00
2023-04-15T07:09:10.649Z,3644.00
2023-04-15T07:10:10.638Z,3684.00
2023-04-15T07:11:10.624Z,3728.00
2023-04-15T07:12:10.601Z,3772.00
2023-04-15T07:13:10.591Z,3828.00
2023-04-15T07:14:10.592Z,3880.00
2023-04-15T07:15:10.576Z,3940.00
2023-04-15T07:16:10.594Z,3988.00
2023-04-15T07:17:10.594Z,4036.00
2023-04-15T07:18:10.525Z,4096.00
2023-04-15T07:19:10.505Z,4160.00
2023-04-15T07:20:10.526Z,4212.00
2023-04-15T07:21:10.479Z,4280.00
2023-04-15T07:22:10.466Z,4328.00
2023-04-15T07:23:10.455Z,4404.00
2023-04-15T07:24:10.512Z,4456.00
2023-04-15T07:25:10.439Z,4544.00
2023-04-15T07:26:10.412Z,4652.00
2023-04-15T07:27:10.421Z,4736.00
2023-04-15T07:28:10.385Z,4836.00
2023-04-15T07:29:10.378Z,4940.00
2023-04-15T07:30:10.377Z,4968.00
2023-04-15T07:31:10.411Z,5100.00
2023-04-15T07:32:10.367Z,5072.00
2023-04-15T07:33:10.319Z,5232.00
2023-04-15T07:34:10.358Z,5088.00
2023-04-15T07:35:10.313Z,5348.00
2023-04-15T07:36:10.293Z,5476.00
2023-04-15T07:37:10.265Z,5524.00
2023-04-15T07:38:10.261Z,5628.00
2023-04-15T07:39:10.240Z,5776.00
2023-04-15T07:40:10.259Z,5812.00
2023-04-15T07:41:10.215Z,5832.00
2023-04-15T07:42:10.202Z,5824.00
2023-04-15T07:43:10.198Z,5968.00
2023-04-15T07:44:10.191Z,5812.00
2023-04-15T07:45:10.178Z,5948.00
2023-04-15T07:46:10.174Z,6004.00
2023-04-15T07:47:10.143Z,5968.00
2023-04-15T07:48:10.134Z,5684.00
2023-04-15T07:49:10.115Z,5916.00
2023-04-15T07:50:10.106Z,5788.00
2023-04-15T07:51:10.087Z,5804.00
2023-04-15T07:52:10.071Z,5612.00
2023-04-15T07:53:10.069Z,5224.00
2023-04-15T07:54:10.056Z,5484.00
2023-04-15T07:55:10.053Z,5268.00
2023-04-15T07:56:10.016Z,5452.00
2023-04-15T07:57:10.013Z,5180.00
2023-04-15T07:58:09.999Z,5272.00
2023-04-15T07:59:09.990Z,5324.00
2023-04-15T08:00:09.989Z,5060.00
2023-04-15T08:01:09.965Z,4996.00
2023-04-15T08:02:10.067Z,5104.00
2023-04-15T08:03:10.085Z,5204.00
2023-04-15T08:04:10.158Z,5120.00
2023-04-15T08:05:09.970Z,4864.00
2023-04-15T08:06:09.891Z,5224.00
2023-04-15T08:07:09.874Z,5456.00
2023-04-15T08:08:09.861Z,5624.00
2023-04-15T08:09:09.858Z,5816.00
2023-04-15T08:10:09.845Z,5920.00
2023-04-15T08:11:09.828Z,6000.00
2023-04-15T08:12:09.806Z,6128.00
2023-04-15T08:13:09.800Z,6060.00
2023-04-15T08:14:09.779Z,6096.00
2023-04-15T08:15:09.788Z,5740.00
2023-04-15T08:16:09.791Z,5852.00
2023-04-15T08:17:09.747Z,5772.00
2023-04-15T08:18:09.722Z,5076.00
2023-04-15T08:19:09.722Z,4800.00
2023-04-15T08:20:09.709Z,5224.00
2023-04-15T08:21:09.692Z,5852.00
2023-04-15T08:22:10.363Z,5588.00
2023-04-15T08:23:10.665Z,5508.00
2023-04-15T08:24:09.657Z,5216.00
2023-04-15T08:25:09.652Z,5948.00
2023-04-15T08:26:09.623Z,5420.00
2023-04-15T08:27:09.624Z,5504.00
2023-04-15T08:28:09.594Z,5688.00
2023-04-15T08:29:09.596Z,4916.00
2023-04-15T08:30:09.579Z,4600.00
2023-04-15T08:31:09.649Z,5200.00
2023-04-15T08:32:09.584Z,5944.00
2023-04-15T08:33:09.544Z,5936.00
2023-04-15T08:34:09.527Z,5216.00
2023-04-15T08:35:09.512Z,5308.00
2023-04-15T08:36:09.490Z,5140.00
2023-04-15T08:37:10.848Z,4732.00
2023-04-15T08:38:09.461Z,3972.00
2023-04-15T08:39:09.458Z,4040.00
2023-04-15T08:40:09.451Z,4152.00
2023-04-15T08:41:09.426Z,3748.00
2023-04-15T08:42:09.404Z,4052.00
2023-04-15T08:43:09.418Z,3992.00
2023-04-15T08:44:09.391Z,3872.00
2023-04-15T08:45:09.406Z,3744.00
2023-04-15T08:46:09.362Z,3980.00
2023-04-15T08:47:09.437Z,4128.00
2023-04-15T08:48:09.333Z,4528.00
2023-04-15T08:49:09.322Z,4340.00
2023-04-15T08:50:09.315Z,3808.00
2023-04-15T08:51:09.306Z,3824.00
2023-04-15T08:52:09.283Z,4376.00
2023-04-15T08:53:09.276Z,4548.00
2023-04-15T08:54:09.251Z,4108.00
2023-04-15T08:55:09.258Z,3800.00
2023-04-15T08:56:09.227Z,3820.00
2023-04-15T08:57:09.221Z,3752.00
2023-04-15T08:58:09.200Z,3684.00
2023-04-15T08:59:09.194Z,4036.00
2023-04-15T09:00:09.206Z,3644.00
2023-04-15T09:01:09.195Z,3168.00
2023-04-15T09:02:09.192Z,3156.00
2023-04-15T09:03:09.279Z,3348.00
2023-04-15T09:04:09.141Z,2880.00
2023-04-15T09:05:09.128Z,2696.00
2023-04-15T09:06:09.084Z,2956.00
2023-04-15T09:07:09.085Z,2932.00
2023-04-15T09:08:09.098Z,2972.00
2023-04-15T09:09:09.057Z,3064.00
2023-04-15T09:10:09.069Z,3092.00
2023-04-15T09:11:09.048Z,3144.00
2023-04-15T09:12:09.018Z,3320.00
2023-04-15T09:13:09.007Z,3472.00
2023-04-15T09:14:08.993Z,3528.00
2023-04-15T09:15:08.991Z,3804.00
2023-04-15T09:16:08.986Z,4124.00
2023-04-15T09:17:08.948Z,3988.00
2023-04-15T09:18:08.943Z,3764.00
2023-04-15T09:19:08.940Z,4084.00
2023-04-15T09:20:08.942Z,4120.00
2023-04-15T09:21:08.914Z,3728.00
2023-04-15T09:22:08.885Z,4668.00
2023-04-15T09:23:08.872Z,4380.00
2023-04-15T09:24:08.860Z,4108.00
2023-04-15T09:25:08.857Z,4092.00
2023-04-15T09:26:08.832Z,4168.00
2023-04-15T09:27:08.830Z,3896.00
2023-04-15T09:28:08.812Z,4112.00
2023-04-15T09:29:08.800Z,4356.00
2023-04-15T09:30:08.795Z,4828.00
2023-04-15T09:31:08.830Z,4544.00
2023-04-15T09:32:08.748Z,5428.00
2023-04-15T09:33:09.056Z,4788.00
2023-04-15T09:34:08.727Z,4832.00
2023-04-15T09:35:08.735Z,5616.00
2023-04-15T09:36:08.702Z,5404.00
2023-04-15T09:37:08.698Z,6052.00
2023-04-15T09:38:08.677Z,5028.00
2023-04-15T09:39:08.669Z,5268.00
2023-04-15T09:40:08.657Z,4992.00
2023-04-15T09:41:08.638Z,5688.00
2023-04-15T09:42:08.644Z,6724.00
2023-04-15T09:43:08.617Z,6684.00
2023-04-15T09:44:08.605Z,7360.00
2023-04-15T09:45:08.600Z,7036.00
2023-04-15T09:46:08.624Z,6388.00
2023-04-15T09:47:08.554Z,5920.00
2023-04-15T09:48:08.556Z,6552.00
2023-04-15T09:49:08.534Z,6304.00
2023-04-15T09:50:08.539Z,5668.00
2023-04-15T09:51:08.504Z,4760.00
2023-04-15T09:52:08.495Z,4944.00
2023-04-15T09:53:08.498Z,5224.00
2023-04-15T09:54:08.464Z,5284.00
2023-04-15T09:55:08.452Z,4772.00
2023-04-15T09:56:08.445Z,4192.00
2023-04-15T09:57:08.465Z,4008.00
2023-04-15T09:58:08.408Z,4440.00
2023-04-15T09:59:08.411Z,3896.00
2023-04-15T10:00:08.448Z,3848.00
2023-04-15T10:01:08.394Z,4072.00
2023-04-15T10:02:08.424Z,4144.00
2023-04-15T10:03:08.460Z,4236.00
2023-04-15T10:04:08.389Z,4372.00
2023-04-15T10:05:08.347Z,4336.00
2023-04-15T10:06:08.332Z,4776.00
2023-04-15T10:07:08.299Z,5120.00
2023-04-15T10:08:08.280Z,5620.00
2023-04-15T10:09:08.282Z,6028.00
2023-04-15T10:10:08.267Z,6364.00
2023-04-15T10:11:08.246Z,5664.00
2023-04-15T10:12:08.227Z,5964.00
2023-04-15T10:13:08.219Z,5984.00
2023-04-15T10:14:08.202Z,5084.00
2023-04-15T10:15:08.198Z,5952.00
2023-04-15T10:16:08.275Z,5368.00
2023-04-15T10:17:08.159Z,5000.00
2023-04-15T10:18:08.181Z,5220.00
2023-04-15T10:19:08.403Z,4940.00
2023-04-15T10:20:08.139Z,4400.00
2023-04-15T10:21:08.108Z,4160.00
2023-04-15T10:22:08.108Z,4348.00
2023-04-15T10:23:09.910Z,4052.00
2023-04-15T10:24:08.079Z,4136.00
2023-04-15T10:25:08.064Z,4056.00
2023-04-15T10:26:08.056Z,3652.00
2023-04-15T10:27:08.027Z,3788.00
2023-04-15T10:28:08.026Z,3548.00
2023-04-15T10:29:08.001Z,3552.00
2023-04-15T10:30:08.001Z,3436.00
2023-04-15T10:31:08.000Z,3388.00
2023-04-15T10:32:08.000Z,3796.00
2023-04-15T10:33:07.945Z,3416.00
2023-04-15T10:34:07.939Z,3328.00
2023-04-15T10:35:07.925Z,3516.00
2023-04-15T10:36:07.931Z,3496.00
2023-04-15T10:37:07.891Z,3580.00
2023-04-15T10:38:07.880Z,3852.00
2023-04-15T10:39:07.875Z,3816.00
2023-04-15T10:40:07.867Z,3696.00
2023-04-15T10:41:07.836Z,3792.00
2023-04-15T10:42:07.833Z,3984.00
2023-04-15T10:43:07.817Z,3752.00
2023-04-15T10:44:07.808Z,3392.00
2023-04-15T10:45:07.793Z,3488.00
2023-04-15T10:46:07.816Z,3928.00
2023-04-15T10:47:07.760Z,4604.00
2023-04-15T10:48:07.812Z,5136.00
2023-04-15T10:49:07.732Z,5128.00
2023-04-15T10:50:07.741Z,5488.00
2023-04-15T10:51:07.709Z,5164.00
2023-04-15T10:52:07.695Z,5212.00
2023-04-15T10:53:07.676Z,5888.00
2023-04-15T10:54:07.740Z,5920.00
2023-04-15T10:55:07.680Z,5348.00
2023-04-15T10:56:07.656Z,4988.00
2023-04-15T10:57:07.629Z,4968.00
2023-04-15T10:58:07.625Z,5364.00
2023-04-15T10:59:07.594Z,5564.00
2023-04-15T11:00:07.596Z,5560.00
2023-04-15T11:01:07.569Z,5332.00
2023-04-15T11:02:07.685Z,5568.00
2023-04-15T11:03:07.831Z,5724.00
2023-04-15T11:04:08.088Z,6028.00
2023-04-15T11:05:07.526Z,5940.00
2023-04-15T11:06:07.534Z,5960.00
2023-04-15T11:07:07.508Z,6892.00
2023-04-15T11:08:07.475Z,6956.00
2023-04-15T11:09:07.467Z,7564.00
2023-04-15T11:10:07.466Z,7724.00
2023-04-15T11:11:07.441Z,7724.00
2023-04-15T11:12:07.439Z,7448.00
2023-04-15T11:13:07.407Z,7200.00
2023-04-15T11:14:07.397Z,7176.00
2023-04-15T11:15:07.389Z,6968.00
2023-04-15T11:16:07.391Z,7280.00
2023-04-15T11:17:07.345Z,6608.00
2023-04-15T11:18:07.367Z,5900.00
2023-04-15T11:19:07.327Z,5272.00
2023-04-15T11:20:07.334Z,5524.00
2023-04-15T11:21:07.299Z,5764.00
2023-04-15T11:22:07.287Z,5760.00
2023-04-15T11:23:14.607Z,5464.00
2023-04-15T11:24:08.590Z,4976.00
2023-04-15T11:25:07.256Z,4808.00
2023-04-15T11:26:07.235Z,5280.00
2023-04-15T11:27:07.214Z,5436.00
2023-04-15T11:28:07.208Z,5032.00
2023-04-15T11:29:07.188Z,5268.00
2023-04-15T11:30:07.204Z,5652.00
2023-04-15T11:31:07.161Z,5316.00
2023-04-15T11:32:07.179Z,5220.00
2023-04-15T11:33:07.133Z,5176.00
2023-04-15T11:34:07.177Z,5524.00
2023-04-15T11:35:07.114Z,5980.00
2023-04-15T11:36:07.108Z,6428.00
2023-04-15T11:37:07.075Z,6372.00
2023-04-15T11:38:07.069Z,6680.00
2023-04-15T11:39:07.049Z,7224.00
2023-04-15T11:40:07.058Z,6940.00
2023-04-15T11:41:07.026Z,6684.00
2023-04-15T11:42:07.017Z,7168.00
2023-04-15T11:43:07.006Z,6500.00
2023-04-15T11:44:06.991Z,5660.00
2023-04-15T11:45:06.985Z,5332.00
2023-04-15T11:46:07.040Z,5228.00
2023-04-15T11:47:06.940Z,4468.00
2023-04-15T11:48:06.948Z,4728.00
2023-04-15T11:49:06.920Z,5172.00
2023-04-15T11:50:06.927Z,5236.00
2023-04-15T11:51:06.896Z,5252.00
2023-04-15T11:52:06.878Z,5316.00
2023-04-15T11:53:08.599Z,5148.00
2023-04-15T11:54:07.135Z,4688.00
2023-04-15T11:55:06.845Z,4252.00
2023-04-15T11:56:06.823Z,3532.00
2023-04-15T11:57:06.822Z,3188.00
2023-04-15T11:58:06.798Z,2960.00
2023-04-15T11:59:06.774Z,3144.00
2023-04-15T12:00:06.790Z,3232.00
2023-04-15T12:01:06.755Z,3280.00
2023-04-15T12:02:06.792Z,3556.00
2023-04-15T12:03:06.907Z,3824.00
2023-04-15T12:04:07.207Z,4004.00
2023-04-15T12:05:06.779Z,4128.00
2023-04-15T12:06:06.684Z,4188.00
2023-04-15T12:07:06.669Z,4216.00
2023-04-15T12:08:06.653Z,3984.00
2023-04-15T12:09:06.656Z,4004.00
2023-04-15T12:10:06.640Z,3848.00
2023-04-15T12:11:06.624Z,3584.00
2023-04-15T12:12:06.621Z,3444.00
2023-04-15T12:13:06.600Z,3408.00
2023-04-15T12:14:06.642Z,3544.00
2023-04-15T12:15:06.581Z,3652.00
2023-04-15T12:16:06.579Z,3452.00
2023-04-15T12:17:06.543Z,3248.00
2023-04-15T12:18:06.542Z,3476.00
2023-04-15T12:19:06.519Z,4232.00
2023-04-15T12:20:06.510Z,3844.00
2023-04-15T12:21:06.483Z,3844.00
2023-04-15T12:22:06.463Z,4296.00
2023-04-15T12:23:06.469Z,3916.00
2023-04-15T12:24:06.670Z,3424.00
2023-04-15T12:25:06.478Z,3576.00
2023-04-15T12:26:06.411Z,4108.00
2023-04-15T12:27:06.410Z,4284.00
2023-04-15T12:28:06.392Z,3736.00
2023-04-15T12:29:06.408Z,3432.00
2023-04-15T12:30:06.387Z,3484.00
2023-04-15T12:31:06.384Z,3400.00
2023-04-15T12:32:06.338Z,3208.00
2023-04-15T12:33:06.378Z,3104.00
2023-04-15T12:34:06.550Z,3036.00
2023-04-15T12:35:06.324Z,2904.00
2023-04-15T12:36:06.294Z,3068.00
2023-04-15T12:37:06.286Z,3020.00
2023-04-15T12:38:06.261Z,2928.00
2023-04-15T12:39:06.306Z,2492.00
2023-04-15T12:40:06.243Z,2176.00
2023-04-15T12:41:06.228Z,2136.00
2023-04-15T12:42:06.234Z,2188.00
2023-04-15T12:43:06.201Z,2048.00
2023-04-15T12:44:06.430Z,2144.00
2023-04-15T12:45:06.187Z,2184.00
2023-04-15T12:46:06.218Z,2156.00
2023-04-15T12:47:06.152Z,1992.00
2023-04-15T12:48:06.142Z,1752.00
2023-04-15T12:49:06.130Z,1812.00
2023-04-15T12:50:06.120Z,1984.00
2023-04-15T12:51:06.100Z,2068.00
2023-04-15T12:52:06.086Z,2280.00
2023-04-15T12:53:06.081Z,2524.00
2023-04-15T12:54:06.387Z,2596.00
2023-04-15T12:55:06.192Z,2608.00
2023-04-15T12:56:06.032Z,2424.00
2023-04-15T12:57:07.467Z,2312.00
2023-04-15T12:58:06.008Z,2256.00
2023-04-15T12:59:06.005Z,2284.00
2023-04-15T13:00:05.985Z,2212.00
2023-04-15T13:01:05.971Z,2248.00
2023-04-15T13:02:06.134Z,2228.00
2023-04-15T13:03:07.214Z,2168.00
2023-04-15T13:04:06.177Z,2188.00
2023-04-15T13:05:05.945Z,2256.00
2023-04-15T13:06:05.899Z,2280.00
2023-04-15T13:07:05.912Z,2232.00
2023-04-15T13:08:05.881Z,2264.00
2023-04-15T13:09:06.138Z,2304.00
2023-04-15T13:10:05.867Z,2308.00
2023-04-15T13:11:05.857Z,2368.00
2023-04-15T13:12:05.837Z,2432.00
2023-04-15T13:13:05.832Z,2292.00
2023-04-15T13:14:05.896Z,2220.00
2023-04-15T13:15:05.882Z,2308.00
2023-04-15T13:16:05.800Z,2564.00
2023-04-15T13:17:05.752Z,2644.00
2023-04-15T13:18:05.767Z,2772.00
2023-04-15T13:19:05.746Z,3072.00
2023-04-15T13:20:05.731Z,3164.00
2023-04-15T13:21:05.713Z,3156.00
2023-04-15T13:22:05.722Z,3220.00
2023-04-15T13:23:05.686Z,2884.00
2023-04-15T13:24:05.915Z,2860.00
2023-04-15T13:25:05.678Z,2480.00
2023-04-15T13:26:05.649Z,2148.00
2023-04-15T13:27:05.627Z,1852.00
2023-04-15T13:28:05.618Z,1700.00
2023-04-15T13:29:05.608Z,1732.00
2023-04-15T13:30:05.610Z,1832.00
2023-04-15T13:31:05.611Z,2084.00
2023-04-15T13:32:05.570Z,2024.00
2023-04-15T13:33:05.566Z,1800.00
2023-04-15T13:34:05.812Z,1796.00
2023-04-15T13:35:05.543Z,1900.00
2023-04-15T13:36:05.568Z,1924.00
2023-04-15T13:37:05.501Z,1856.00
2023-04-15T13:38:05.513Z,1828.00
2023-04-15T13:39:05.488Z,1744.00
2023-04-15T13:40:05.477Z,1740.00
2023-04-15T13:41:05.456Z,1796.00
2023-04-15T13:42:05.440Z,1820.00
2023-04-15T13:43:05.424Z,1780.00
2023-04-15T13:44:05.641Z,1712.00
2023-04-15T13:45:05.405Z,1696.00
2023-04-15T13:46:05.504Z,1648.00
2023-04-15T13:47:05.379Z,1504.00
2023-04-15T13:48:05.359Z,1388.00
2023-04-15T13:49:05.349Z,1356.00
2023-04-15T13:50:05.392Z,1396.00
2023-04-15T13:51:05.344Z,1444.00
2023-04-15T13:52:05.321Z,1392.00
2023-04-15T13:53:05.288Z,1280.00
2023-04-15T13:54:05.683Z,1260.00
2023-04-15T13:55:19.438Z,1260.00
2023-04-15T13:56:06.274Z,1232.00
2023-04-15T13:57:05.244Z,1188.00
2023-04-15T13:58:05.233Z,1140.00
2023-04-15T13:59:05.218Z,1200.00
2023-04-15T14:00:05.225Z,1380.00
2023-04-15T14:01:06.298Z,1236.00
2023-04-15T14:02:05.305Z,1208.00
2023-04-15T14:03:05.350Z,1248.00
2023-04-15T14:04:05.474Z,1196.00
2023-04-15T14:05:05.128Z,1192.00
2023-04-15T14:06:05.172Z,1268.00
2023-04-15T14:07:05.413Z,1388.00
2023-04-15T14:08:05.105Z,1264.00
2023-04-15T14:09:05.410Z,1340.00
2023-04-15T14:10:05.166Z,1412.00
2023-04-15T14:11:05.093Z,1484.00
2023-04-15T14:12:05.057Z,1712.00
2023-04-15T14:13:05.027Z,1744.00
2023-04-15T14:14:05.304Z,1540.00
2023-04-15T14:15:05.020Z,1556.00
2023-04-15T14:16:05.002Z,1884.00
2023-04-15T14:17:04.978Z,1708.00
2023-04-15T14:18:04.978Z,1516.00
2023-04-15T14:19:05.194Z,1440.00
2023-04-15T14:20:04.929Z,1372.00
2023-04-15T14:21:04.921Z,1324.00
2023-04-15T14:22:04.908Z,1392.00
2023-04-15T14:23:04.894Z,1480.00
2023-04-15T14:24:04.899Z,1488.00
2023-04-15T14:25:04.865Z,1480.00
2023-04-15T14:26:04.880Z,1376.00
2023-04-15T14:27:04.845Z,1340.00
2023-04-15T14:28:04.823Z,1408.00
2023-04-15T14:29:05.056Z,1216.00
2023-04-15T14:30:04.803Z,1132.00
2023-04-15T14:31:04.849Z,1116.00
2023-04-15T14:32:12.027Z,1280.00
2023-04-15T14:33:05.760Z,1236.00
2023-04-15T14:34:04.842Z,1096.00
2023-04-15T14:35:04.740Z,1196.00
2023-04-15T14:36:04.743Z,1320.00
2023-04-15T14:37:04.705Z,1380.00
2023-04-15T14:38:04.701Z,1320.00
2023-04-15T14:39:04.897Z,1348.00
2023-04-15T14:40:04.670Z,1268.00
2023-04-15T14:41:04.660Z,1288.00
2023-04-15T14:42:04.654Z,1208.00
2023-04-15T14:43:04.633Z,1256.00
2023-04-15T14:44:04.620Z,1176.00
2023-04-15T14:45:04.607Z,1048.00
2023-04-15T14:46:04.608Z,1100.00
2023-04-15T14:47:04.580Z,1008.00
2023-04-15T14:48:04.611Z,924.00
2023-04-15T14:49:04.722Z,1016.00
2023-04-15T14:50:04.546Z,1104.00
2023-04-15T14:51:04.541Z,980.00
2023-04-15T14:52:04.514Z,944.00
2023-04-15T14:53:04.497Z,884.00
2023-04-15T14:54:04.570Z,800.00
2023-04-15T14:55:04.469Z,792.00
2023-04-15T14:56:04.484Z,792.00
2023-04-15T14:57:04.446Z,780.00
2023-04-15T14:58:04.438Z,712.00
2023-04-15T14:59:04.570Z,644.00
2023-04-15T15:00:04.494Z,600.00
2023-04-15T15:01:04.516Z,580.00
2023-04-15T15:02:04.511Z,576.00
2023-04-15T15:03:04.419Z,632.00
2023-04-15T15:04:04.459Z,624.00
2023-04-15T15:05:04.448Z,600.00
2023-04-15T15:06:04.335Z,584.00
2023-04-15T15:07:04.316Z,588.00
2023-04-15T15:08:04.301Z,608.00
2023-04-15T15:09:04.548Z,632.00
2023-04-15T15:10:04.276Z,640.00
2023-04-15T15:11:04.265Z,712.00
2023-04-15T15:12:04.266Z,716.00
2023-04-15T15:13:04.239Z,768.00
2023-04-15T15:14:04.232Z,792.00
2023-04-15T15:15:12.330Z,740.00
2023-04-15T15:16:05.244Z,760.00
2023-04-15T15:17:04.179Z,704.00
2023-04-15T15:18:04.176Z,664.00
2023-04-15T15:19:04.374Z,732.00
2023-04-15T15:20:04.246Z,752.00
2023-04-15T15:21:04.144Z,720.00
2023-04-15T15:22:04.121Z,640.00
2023-04-15T15:23:04.099Z,660.00
2023-04-15T15:24:04.095Z,636.00
2023-04-15T15:25:04.076Z,652.00
2023-04-15T15:26:04.073Z,608.00
2023-04-15T15:27:04.059Z,668.00
2023-04-15T15:28:04.041Z,620.00
2023-04-15T15:29:04.347Z,588.00
2023-04-15T15:30:04.012Z,584.00
2023-04-15T15:31:04.036Z,552.00
2023-04-15T15:32:03.997Z,492.00
2023-04-15T15:33:04.074Z,524.00
2023-04-15T15:34:03.975Z,504.00
2023-04-15T15:35:03.947Z,480.00
2023-04-15T15:36:03.924Z,484.00
2023-04-15T15:37:03.930Z,512.00
2023-04-15T15:38:03.914Z,432.00
2023-04-15T15:39:05.151Z,460.00
2023-04-15T15:40:03.880Z,460.00
2023-04-15T15:41:03.882Z,436.00
2023-04-15T15:42:03.854Z,408.00
2023-04-15T15:43:03.843Z,424.00
2023-04-15T15:44:03.848Z,444.00
2023-04-15T15:45:03.814Z,500.00
2023-04-15T15:46:03.802Z,560.00
2023-04-15T15:47:03.936Z,548.00
2023-04-15T15:48:03.824Z,592.00
2023-04-15T15:49:04.043Z,580.00
2023-04-15T15:50:06.028Z,568.00
2023-04-15T15:51:03.734Z,584.00
2023-04-15T15:52:03.737Z,564.00
2023-04-15T15:53:03.723Z,536.00
2023-04-15T15:54:03.701Z,504.00
2023-04-15T15:55:03.695Z,512.00
2023-04-15T15:56:03.674Z,528.00
2023-04-15T15:57:03.663Z,468.00
2023-04-15T15:58:03.640Z,460.00
2023-04-15T15:59:03.848Z,456.00
2023-04-15T16:01:03.640Z,452.00
2023-04-15T16:02:03.729Z,436.00
2023-04-15T16:03:07.318Z,424.00
2023-04-15T16:04:03.699Z,420.00
2023-04-15T16:05:03.550Z,412.00
2023-04-15T16:06:03.530Z,400.00
2023-04-15T16:07:03.533Z,392.00
2023-04-15T16:08:03.514Z,372.00
2023-04-15T16:09:03.719Z,376.00
2023-04-15T16:10:03.482Z,372.00
2023-04-15T16:11:03.469Z,380.00
2023-04-15T16:12:03.478Z,384.00
2023-04-15T16:13:03.438Z,372.00
2023-04-15T16:14:03.427Z,380.00
2023-04-15T16:15:03.413Z,380.00
2023-04-15T16:16:03.411Z,356.00
2023-04-15T16:17:03.401Z,356.00
2023-04-15T16:18:03.419Z,352.00
2023-04-15T16:19:03.656Z,364.00
2023-04-15T16:20:03.436Z,344.00
2023-04-15T16:21:03.338Z,364.00
2023-04-15T16:22:03.346Z,360.00
2023-04-15T16:23:03.356Z,352.00
2023-04-15T16:24:03.298Z,348.00
2023-04-15T16:25:03.365Z,352.00
2023-04-15T16:26:03.271Z,328.00
2023-04-15T16:27:03.279Z,332.00